createdAt,value
2023-04-28T00:01:59.869Z,98257.16
2023-04-28T00:04:26.441Z,98246.47
2023-04-28T00:06:52.750Z,98250.97
2023-04-28T00:09:18.871Z,98238.47
2023-04-28T00:11:44.981Z,98231.47
2023-04-28T00:14:11.098Z,98233.31
2023-04-28T00:16:37.789Z,98231.47
2023-04-28T00:19:03.916Z,98226.94
2023-04-28T00:21:30.022Z,98226.13
2023-04-28T00:23:56.170Z,98222.63
2023-04-28T00:26:22.290Z,98219.16
2023-04-28T00:28:48.384Z,98220.78
2023-04-28T00:31:14.554Z,98216.47
2023-04-28T00:33:40.724Z,98220.78
2023-04-28T00:36:06.843Z,98222.63
2023-04-28T00:38:32.951Z,98222.63
2023-04-28T00:40:59.044Z,98209.28
2023-04-28T00:43:25.141Z,98205.81
2023-04-28T00:45:51.367Z,98208.47
2023-04-28T00:48:17.473Z,98211.13
2023-04-28T00:50:43.561Z,98211.13
2023-04-28T00:53:09.672Z,98213.81
2023-04-28T00:55:35.771Z,98215.44
2023-04-28T00:58:01.856Z,98221.00
2023-04-28T01:00:27.979Z,98213.81
2023-04-28T01:02:54.315Z,98209.47
2023-04-28T01:05:20.526Z,98205.81
2023-04-28T01:07:46.733Z,98201.47
2023-04-28T01:10:12.824Z,98204.13
2023-04-28T01:12:38.913Z,98198.81
2023-04-28T01:15:05.023Z,98196.97
2023-04-28T01:17:31.179Z,98197.78
2023-04-28T01:19:57.337Z,98197.78
2023-04-28T01:22:23.512Z,98198.81
2023-04-28T01:24:49.605Z,98193.47
2023-04-28T01:27:15.703Z,98196.13
2023-04-28T01:29:41.809Z,98182.78
2023-04-28T01:32:07.914Z,98188.97
2023-04-28T01:34:34.012Z,98188.13
2023-04-28T01:37:00.131Z,98192.66
2023-04-28T01:39:26.239Z,98184.63
2023-04-28T01:41:52.327Z,98178.28
2023-04-28T01:44:18.695Z,98180.97
2023-04-28T01:46:45.136Z,98173.97
2023-04-28T01:49:11.250Z,98184.63
2023-04-28T01:51:37.883Z,98173.16
2023-04-28T01:54:04.003Z,98173.16
2023-04-28T01:56:30.100Z,98172.09
2023-04-28T01:58:56.216Z,98177.44
2023-04-28T02:01:22.362Z,98171.28
2023-04-28T02:03:48.575Z,98171.28
2023-04-28T02:06:14.763Z,98174.78
2023-04-28T02:08:40.887Z,98165.13
2023-04-28T02:11:06.982Z,98176.63
2023-04-28T02:13:33.179Z,98175.81
2023-04-28T02:15:59.297Z,98180.34
2023-04-28T02:18:25.420Z,98179.28
2023-04-28T02:20:51.532Z,98168.84
2023-04-28T02:23:17.823Z,98163.28
2023-04-28T02:25:44.019Z,98152.81
2023-04-28T02:28:10.154Z,98160.84
2023-04-28T02:30:36.253Z,98162.47
2023-04-28T02:33:02.408Z,98166.19
2023-04-28T02:35:28.549Z,98157.31
2023-04-28T02:37:55.066Z,98155.50
2023-04-28T02:40:21.375Z,98165.13
2023-04-28T02:42:58.759Z,98163.50
2023-04-28T02:45:31.556Z,98163.50
2023-04-28T02:47:58.172Z,98160.00
2023-04-28T02:50:24.305Z,98156.31
2023-04-28T02:52:50.421Z,98151.16
2023-04-28T02:55:16.536Z,98155.50
2023-04-28T02:57:42.641Z,98148.50
2023-04-28T03:00:08.747Z,98153.84
2023-04-28T03:02:34.910Z,98144.81
2023-04-28T03:05:01.119Z,98152.81
2023-04-28T03:07:27.324Z,98151.97
2023-04-28T03:09:53.446Z,98147.50
2023-04-28T03:12:19.644Z,98142.16
2023-04-28T03:14:45.741Z,98135.97
2023-04-28T03:17:11.860Z,98129.81
2023-04-28T03:19:37.950Z,98131.66
2023-04-28T03:22:04.121Z,98126.31
2023-04-28T03:24:30.477Z,98130.84
2023-04-28T03:26:56.614Z,98129.81
2023-04-28T03:29:22.705Z,98127.13
2023-04-28T03:31:49.380Z,98112.97
2023-04-28T03:34:15.667Z,98119.94
2023-04-28T03:36:41.922Z,98117.50
2023-04-28T03:39:08.055Z,98118.31
2023-04-28T03:41:34.147Z,98114.84
2023-04-28T03:44:00.242Z,98127.13
2023-04-28T03:46:26.416Z,98122.84
2023-04-28T03:48:52.581Z,98117.50
2023-04-28T03:51:18.681Z,98120.97
2023-04-28T03:53:44.854Z,98110.31
2023-04-28T03:56:10.959Z,98114.00
2023-04-28T03:58:37.076Z,98106.81
2023-04-28T04:01:03.209Z,98095.28
2023-04-28T04:03:29.561Z,98090.81
2023-04-28T04:05:55.803Z,98085.66
2023-04-28T04:08:21.933Z,98089.16
2023-04-28T04:10:48.027Z,98094.47
2023-04-28T04:13:14.143Z,98094.47
2023-04-28T04:15:40.352Z,98090.19
2023-04-28T04:18:06.572Z,98082.19
2023-04-28T04:20:32.704Z,98077.66
2023-04-28T04:22:58.830Z,98078.47
2023-04-28T04:25:24.927Z,98084.84
2023-04-28T04:27:51.024Z,98072.31
2023-04-28T04:30:17.157Z,98063.50
2023-04-28T04:32:43.351Z,98066.16
2023-04-28T04:35:09.493Z,98062.44
2023-04-28T04:37:35.596Z,98054.66
2023-04-28T04:40:01.711Z,98056.50
2023-04-28T04:42:27.812Z,98048.50
2023-04-28T04:44:53.924Z,98059.16
2023-04-28T04:47:20.111Z,98045.81
2023-04-28T04:49:46.205Z,98045.00
2023-04-28T04:52:12.319Z,98036.78
2023-04-28T04:54:38.427Z,98035.13
2023-04-28T04:57:04.621Z,98027.13
2023-04-28T04:59:30.820Z,98016.44
2023-04-28T05:01:57.015Z,98022.63
2023-04-28T05:04:23.363Z,98016.44
2023-04-28T05:06:49.675Z,98022.84
2023-04-28T05:09:15.768Z,98019.13
2023-04-28T05:11:41.862Z,98032.47
2023-04-28T05:14:07.985Z,98042.34
2023-04-28T05:16:34.119Z,98045.81
2023-04-28T05:19:00.247Z,98053.81
2023-04-28T05:21:26.364Z,98055.69
2023-04-28T05:23:52.468Z,98048.50
2023-04-28T05:26:18.572Z,98054.88
2023-04-28T05:28:44.705Z,98046.88
2023-04-28T05:31:10.804Z,98046.88
2023-04-28T05:33:36.896Z,98046.66
2023-04-28T05:36:03.533Z,98031.66
2023-04-28T05:38:29.645Z,98028.19
2023-04-28T05:40:55.743Z,98039.66
2023-04-28T05:43:21.990Z,98036.19
2023-04-28T05:45:48.109Z,98035.13
2023-04-28T05:48:14.262Z,98033.50
2023-04-28T05:50:40.380Z,98036.19
2023-04-28T05:53:06.483Z,98045.00
2023-04-28T05:55:32.576Z,98038.84
2023-04-28T05:57:58.687Z,98035.38
2023-04-28T06:00:24.804Z,98033.50
2023-04-28T06:02:50.991Z,98035.13
2023-04-28T06:05:17.641Z,98035.38
2023-04-28T06:07:44.068Z,98030.84
2023-04-28T06:10:10.188Z,98031.88
2023-04-28T06:12:36.317Z,98024.69
2023-04-28T06:15:02.432Z,98017.50
2023-04-28T06:17:28.547Z,98013.19
2023-04-28T06:19:54.890Z,98006.81
2023-04-28T06:22:21.007Z,97997.19
2023-04-28T06:24:47.101Z,97981.16
2023-04-28T06:27:13.202Z,97977.44
2023-04-28T06:29:39.421Z,97973.97
2023-04-28T06:32:05.548Z,97990.00
2023-04-28T06:34:31.676Z,97970.50
2023-04-28T06:36:57.779Z,97968.03
2023-04-28T06:39:23.875Z,97963.28
2023-04-28T06:41:50.500Z,97949.13
2023-04-28T06:44:16.780Z,97958.16
2023-04-28T06:46:43.099Z,97959.81
2023-04-28T06:49:09.261Z,97965.16
2023-04-28T06:51:35.357Z,97972.13
2023-04-28T06:54:01.496Z,97965.97
2023-04-28T06:56:28.143Z,97971.31
2023-04-28T06:58:54.231Z,97954.47
2023-04-28T07:01:20.436Z,97949.34
2023-04-28T07:03:46.712Z,97950.16
2023-04-28T07:06:12.908Z,97953.63
2023-04-28T07:08:39.007Z,97948.28
2023-04-28T07:11:05.234Z,97940.28
2023-04-28T07:13:31.363Z,97936.81
2023-04-28T07:15:57.549Z,97944.81
2023-04-28T07:18:23.718Z,97943.78
2023-04-28T07:20:49.825Z,97944.59
2023-04-28T07:23:15.917Z,97952.81
2023-04-28T07:25:42.045Z,97942.13
2023-04-28T07:28:08.151Z,97958.97
2023-04-28T07:30:34.242Z,97961.63
2023-04-28T07:33:00.886Z,97955.47
2023-04-28T07:35:27.411Z,97953.63
2023-04-28T07:37:54.020Z,97942.13
2023-04-28T07:40:20.433Z,97932.28
2023-04-28T07:42:46.633Z,97936.00
2023-04-28T07:45:12.921Z,97939.47
2023-04-28T07:47:42.583Z,97937.63
2023-04-28T07:50:08.886Z,97930.44
2023-04-28T07:52:35.398Z,97934.13
2023-04-28T07:55:10.499Z,97951.81
2023-04-28T07:57:36.605Z,97939.47
2023-04-28T08:00:02.745Z,97932.28
2023-04-28T08:02:29.027Z,97933.13
2023-04-28T08:04:55.508Z,97929.59
2023-04-28T08:07:21.825Z,97932.28
2023-04-28T08:09:47.906Z,97937.63
2023-04-28T08:12:14.042Z,97937.63
2023-04-28T08:14:40.166Z,97953.63
2023-04-28T08:17:06.298Z,97957.16
2023-04-28T08:19:32.391Z,97962.47
2023-04-28T08:21:58.509Z,97938.47
2023-04-28T08:24:24.612Z,97950.97
2023-04-28T08:26:50.708Z,97957.97
2023-04-28T08:29:16.887Z,97969.66
2023-04-28T08:31:43.014Z,97976.66
2023-04-28T08:34:09.114Z,97973.97
2023-04-28T08:36:35.317Z,97960.63
2023-04-28T08:39:01.429Z,97971.31
2023-04-28T08:41:27.513Z,97964.09
2023-04-28T08:43:53.615Z,97963.28
2023-04-28T08:46:19.829Z,97964.91
2023-04-28T08:48:46.002Z,97971.31
2023-04-28T08:51:12.172Z,97963.28
2023-04-28T08:53:59.507Z,97967.59
2023-04-28T08:56:24.383Z,97972.13
2023-04-28T08:58:50.764Z,97974.78
2023-04-28T09:01:16.957Z,97967.59
2023-04-28T09:03:43.366Z,97971.06
2023-04-28T09:06:09.630Z,97959.59
2023-04-28T09:08:35.772Z,97966.56
2023-04-28T09:11:01.890Z,97963.91
2023-04-28T09:13:27.987Z,97957.72
2023-04-28T09:15:54.097Z,97961.25
2023-04-28T09:18:20.221Z,97952.19
2023-04-28T09:20:46.303Z,97959.38
2023-04-28T09:23:12.390Z,97960.38
2023-04-28T09:25:38.500Z,97958.56
2023-04-28T09:28:04.620Z,97959.38
2023-04-28T09:30:30.715Z,97958.56
2023-04-28T09:32:57.470Z,97955.66
2023-04-28T09:35:23.657Z,97966.34
2023-04-28T09:37:49.754Z,97953.81
2023-04-28T09:40:15.944Z,97953.00
2023-04-28T09:42:42.080Z,97953.81
2023-04-28T09:45:08.230Z,97962.66
2023-04-28T09:47:34.440Z,97956.47
2023-04-28T09:50:00.571Z,97960.00
2023-04-28T09:52:26.692Z,97951.97
2023-04-28T09:54:52.878Z,97952.78
2023-04-28T09:57:19.321Z,97936.78
2023-04-28T09:59:45.459Z,97942.94
2023-04-28T10:02:32.046Z,97949.94
2023-04-28T10:04:57.906Z,97944.59
2023-04-28T10:07:24.119Z,97945.41
2023-04-28T10:09:50.223Z,97945.41
2023-04-28T10:12:16.342Z,97945.41
2023-04-28T10:14:42.674Z,97945.41
2023-04-28T10:17:08.906Z,97939.25
2023-04-28T10:19:35.010Z,97941.69
2023-04-28T10:22:01.195Z,97941.69
2023-04-28T10:24:27.304Z,97947.03
2023-04-28T10:26:53.442Z,97947.03
2023-04-28T10:29:19.897Z,97953.19
2023-04-28T10:31:46.204Z,97953.19
2023-04-28T10:34:12.328Z,97952.16
2023-04-28T10:36:38.445Z,97954.84
2023-04-28T10:39:04.552Z,97952.16
2023-04-28T10:41:30.681Z,97946.81
2023-04-28T10:43:56.804Z,97943.34
2023-04-28T10:46:22.961Z,97936.97
2023-04-28T10:48:49.209Z,97939.63
2023-04-28T10:51:15.426Z,97934.09
2023-04-28T10:53:41.559Z,97934.09
2023-04-28T10:56:07.909Z,97925.22
2023-04-28T10:58:34.062Z,97929.75
2023-04-28T11:01:00.159Z,97925.22
2023-04-28T11:03:26.490Z,97922.34
2023-04-28T11:05:52.923Z,97927.69
2023-04-28T11:08:19.022Z,97922.34
2023-04-28T11:10:45.106Z,97916.00
2023-04-28T11:13:11.230Z,97917.03
2023-04-28T11:15:37.338Z,97913.34
2023-04-28T11:18:03.468Z,97908.00
2023-04-28T11:20:29.609Z,97913.34
2023-04-28T11:22:55.696Z,97914.97
2023-04-28T11:25:21.807Z,97917.63
2023-04-28T11:27:47.913Z,97916.59
2023-04-28T11:30:14.035Z,97914.97
2023-04-28T11:32:40.156Z,97923.56
2023-04-28T11:35:06.315Z,97919.25
2023-04-28T11:40:06.566Z,97931.59
2023-04-28T11:42:32.683Z,97929.72
2023-04-28T11:44:58.770Z,97928.69
2023-04-28T11:47:24.909Z,97931.34
2023-04-28T11:49:51.035Z,97932.19
2023-04-28T11:52:17.121Z,97937.53
2023-04-28T11:54:43.218Z,97936.50
2023-04-28T11:57:09.844Z,97925.81
2023-04-28T11:59:36.032Z,97931.16
2023-04-28T12:02:02.347Z,97940.78
2023-04-28T12:07:10.053Z,97925.63
2023-04-28T12:09:36.228Z,97937.91
2023-04-28T12:12:02.397Z,97940.59
2023-04-28T12:14:28.512Z,97934.44
2023-04-28T12:16:54.616Z,97931.56
2023-04-28T12:19:20.735Z,97935.03
2023-04-28T12:21:46.873Z,97928.03
2023-04-28T12:24:12.989Z,97931.56
2023-04-28T12:26:39.101Z,97929.69
2023-04-28T12:29:07.105Z,97927.84
2023-04-28T12:31:33.250Z,97934.00
2023-04-28T12:33:59.371Z,97944.69
2023-04-28T12:36:25.500Z,97947.16
2023-04-28T12:38:51.597Z,97939.34
2023-04-28T12:41:17.705Z,97942.63
2023-04-28T12:43:44.178Z,97935.66
2023-04-28T12:46:10.292Z,97940.75
2023-04-28T12:48:36.422Z,97949.59
2023-04-28T12:51:02.550Z,97954.13
2023-04-28T12:53:28.651Z,97949.59
2023-04-28T12:55:54.754Z,97947.75
2023-04-28T12:58:20.923Z,97948.56
2023-04-28T13:00:47.108Z,97946.91
2023-04-28T13:03:13.347Z,97949.38
2023-04-28T13:05:39.609Z,97948.56
2023-04-28T13:08:05.715Z,97943.22
2023-04-28T13:10:31.823Z,97944.84
2023-04-28T13:12:57.985Z,97945.69
2023-04-28T13:15:24.082Z,97944.84
2023-04-28T13:17:50.199Z,97941.97
2023-04-28T13:20:16.370Z,97943.84
2023-04-28T13:22:42.505Z,97935.81
2023-04-28T13:25:08.596Z,97924.91
2023-04-28T13:27:35.466Z,97921.44
2023-04-28T13:30:02.727Z,97924.09
2023-04-28T13:32:28.838Z,97923.91
2023-04-28T13:34:54.971Z,97923.06
2023-04-28T13:37:21.067Z,97916.91
2023-04-28T13:39:47.171Z,97917.75
2023-04-28T13:42:13.339Z,97917.75
2023-04-28T13:44:39.427Z,97909.72
2023-04-28T13:47:05.551Z,97916.69
2023-04-28T13:49:31.687Z,97920.19
2023-04-28T13:51:58.476Z,97916.69
2023-04-28T13:54:24.590Z,97916.69
2023-04-28T13:56:50.918Z,97910.31
2023-04-28T13:59:17.036Z,97906.81
2023-04-28T14:01:43.292Z,97904.97
2023-04-28T14:04:10.003Z,97902.09
2023-04-28T14:06:36.502Z,97901.28
2023-04-28T14:09:02.930Z,97883.59
2023-04-28T14:11:29.452Z,97894.06
2023-04-28T14:13:58.725Z,97891.41
2023-04-28T14:16:27.356Z,97887.91
2023-04-28T14:18:53.507Z,97885.25
2023-04-28T14:21:19.929Z,97876.19
2023-04-28T14:23:46.434Z,97875.38
2023-04-28T14:26:12.870Z,97878.84
2023-04-28T14:28:39.012Z,97884.00
2023-04-28T14:31:05.126Z,97878.84
2023-04-28T14:33:31.274Z,97870.66
2023-04-28T14:35:57.369Z,97874.13
2023-04-28T14:38:23.463Z,97873.31
2023-04-28T14:40:49.589Z,97875.16
2023-04-28T14:43:15.884Z,97870.44
2023-04-28T14:45:42.306Z,97867.75
2023-04-28T14:48:14.832Z,97864.25
2023-04-28T14:50:41.106Z,97863.44
2023-04-28T14:53:07.365Z,97853.56
2023-04-28T14:55:33.616Z,97855.22
2023-04-28T14:57:59.753Z,97839.19
2023-04-28T15:00:25.921Z,97858.72
2023-04-28T15:02:52.186Z,97857.09
2023-04-28T15:05:18.390Z,97852.56
2023-04-28T15:07:44.553Z,97854.22
2023-04-28T15:10:10.672Z,97847.00
2023-04-28T15:12:36.779Z,97845.19
2023-04-28T15:15:02.866Z,97845.19
2023-04-28T15:17:29.181Z,97848.66
2023-04-28T15:19:55.282Z,97851.31
2023-04-28T15:22:21.417Z,97852.94
2023-04-28T15:24:47.759Z,97844.72
2023-04-28T15:27:14.083Z,97841.25
2023-04-28T15:29:40.246Z,97841.47
2023-04-28T15:32:06.382Z,97839.59
2023-04-28T15:34:32.500Z,97838.56
2023-04-28T15:36:58.622Z,97838.56
2023-04-28T15:39:24.747Z,97851.13
2023-04-28T15:41:50.844Z,97859.72
2023-04-28T15:44:16.954Z,97851.50
2023-04-28T15:46:43.168Z,97859.50
2023-04-28T15:49:09.272Z,97852.31
2023-04-28T15:51:35.375Z,97845.09
2023-04-28T15:54:01.588Z,97847.78
2023-04-28T15:56:27.702Z,97845.09
2023-04-28T15:58:53.819Z,97841.63
2023-04-28T16:01:20.006Z,97844.09
2023-04-28T16:03:48.139Z,97847.56
2023-04-28T16:06:14.562Z,97857.19
2023-04-28T16:08:40.775Z,97855.38
2023-04-28T16:11:06.880Z,97857.00
2023-04-28T16:13:32.970Z,97861.53
2023-04-28T16:15:59.081Z,97870.16
2023-04-28T16:18:25.306Z,97883.50
2023-04-28T16:20:51.468Z,97880.59
2023-04-28T16:23:17.677Z,97882.25
2023-04-28T16:25:43.784Z,97890.25
2023-04-28T16:28:09.870Z,97892.94
2023-04-28T16:30:36.009Z,97895.63
2023-04-28T16:33:02.182Z,97897.22
2023-04-28T16:35:28.317Z,97896.22
2023-04-28T16:37:54.433Z,97908.72
2023-04-28T16:40:20.539Z,97908.72
2023-04-28T16:42:46.637Z,97906.91
2023-04-28T16:45:12.744Z,97917.59
2023-04-28T16:47:38.858Z,97924.56
2023-04-28T16:50:04.979Z,97926.22
2023-04-28T16:52:31.247Z,97926.22
2023-04-28T16:54:57.348Z,97927.84
2023-04-28T16:57:23.451Z,97940.16
2023-04-28T16:59:49.686Z,97941.19
2023-04-28T17:02:17.566Z,97937.47
2023-04-28T17:04:43.746Z,97933.78
2023-04-28T17:07:09.879Z,97934.00
2023-04-28T17:09:35.996Z,97932.97
2023-04-28T17:12:02.086Z,97940.16
2023-04-28T17:14:28.246Z,97941.81
2023-04-28T17:16:54.347Z,97950.84
2023-04-28T17:19:20.451Z,97947.16
2023-04-28T17:21:46.609Z,97943.44
2023-04-28T17:24:12.714Z,97952.50
2023-04-28T17:26:38.809Z,97955.97
2023-04-28T17:29:04.926Z,97963.19
2023-04-28T17:31:31.052Z,97961.13
2023-04-28T17:33:57.214Z,97966.47
2023-04-28T17:36:23.349Z,97960.28
2023-04-28T17:38:49.474Z,97974.47
2023-04-28T17:41:15.570Z,97966.47
2023-04-28T17:43:41.698Z,97972.81
2023-04-28T17:46:07.875Z,97972.81
2023-04-28T17:48:33.970Z,97979.22
2023-04-28T17:51:00.105Z,97968.53
2023-04-28T17:53:26.204Z,97974.88
2023-04-28T17:55:52.291Z,97980.22
2023-04-28T17:58:18.409Z,97984.56
2023-04-28T18:00:44.517Z,97987.22
2023-04-28T18:03:10.692Z,97981.06
2023-04-28T18:05:36.903Z,97989.09
2023-04-28T18:08:03.026Z,97990.91
2023-04-28T18:10:29.142Z,97993.59
2023-04-28T18:12:55.256Z,97996.50
2023-04-28T18:15:21.345Z,98001.59
2023-04-28T18:17:47.482Z,98006.94
2023-04-28T18:20:13.662Z,98013.34
2023-04-28T18:22:39.773Z,98013.13
2023-04-28T18:25:05.870Z,98011.47
2023-04-28T18:27:32.030Z,98008.81
2023-04-28T18:29:58.116Z,98006.13
2023-04-28T18:32:24.247Z,98006.13
2023-04-28T18:34:50.727Z,98008.81
2023-04-28T18:37:17.115Z,98013.34
2023-04-28T18:39:43.223Z,98014.97
2023-04-28T18:42:09.534Z,98002.66
2023-04-28T18:44:35.735Z,98011.47
2023-04-28T18:47:02.148Z,98014.16
2023-04-28T18:49:28.274Z,98010.47
2023-04-28T18:51:54.447Z,98017.63
2023-04-28T18:54:20.699Z,98020.31
2023-04-28T18:56:46.818Z,98014.16
2023-04-28T18:59:12.922Z,98016.81
2023-04-28T19:01:39.180Z,98021.97
2023-04-28T19:04:05.489Z,98019.50
2023-04-28T19:06:31.770Z,98028.31
2023-04-28T19:08:57.877Z,98036.34
2023-04-28T19:11:23.996Z,98034.72
2023-04-28T19:13:50.089Z,98039.03
2023-04-28T19:16:16.218Z,98039.88
2023-04-28T19:18:42.743Z,98038.00
2023-04-28T19:21:08.865Z,98047.03
2023-04-28T19:23:34.997Z,98047.03
2023-04-28T19:26:01.133Z,98058.56
2023-04-28T19:28:27.481Z,98055.91
2023-04-28T19:30:53.667Z,98061.44
2023-04-28T19:33:20.254Z,98063.06
2023-04-28T19:35:46.546Z,98060.41
2023-04-28T19:38:12.642Z,98057.72
2023-04-28T19:40:38.852Z,98064.72
2023-04-28T19:43:06.612Z,98057.72
2023-04-28T19:48:12.908Z,98059.38
2023-04-28T19:50:39.052Z,98059.59
2023-04-28T19:53:05.165Z,98063.91
2023-04-28T19:55:31.280Z,98064.72
2023-04-28T19:57:57.529Z,98065.75
2023-04-28T20:00:23.620Z,98065.75
2023-04-28T20:02:49.823Z,98065.75
2023-04-28T20:05:16.004Z,98061.44
2023-04-28T20:07:42.130Z,98061.44
2023-04-28T20:10:08.278Z,98073.75
2023-04-28T20:12:34.489Z,98070.06
2023-04-28T20:15:00.647Z,98071.94
2023-04-28T20:17:26.775Z,98070.06
2023-04-28T20:19:53.131Z,98074.59
2023-04-28T20:22:19.467Z,98070.06
2023-04-28T20:24:46.396Z,98075.41
2023-04-28T20:27:12.542Z,98067.41
2023-04-28T20:29:38.646Z,98064.94
2023-04-28T20:32:04.762Z,98058.56
2023-04-28T20:34:30.861Z,98066.59
2023-04-28T20:36:56.950Z,98064.72
2023-04-28T20:39:23.077Z,98063.91
2023-04-28T20:41:49.201Z,98064.72
2023-04-28T20:44:15.303Z,98060.41
2023-04-28T20:46:41.444Z,98064.94
2023-04-28T20:49:07.571Z,98063.91
2023-04-28T20:51:33.667Z,98070.28
2023-04-28T20:53:59.784Z,98063.06
2023-04-28T20:56:25.898Z,98062.25
2023-04-28T20:58:52.014Z,98057.72
2023-04-28T21:01:18.182Z,98055.91
2023-04-28T21:03:44.496Z,98055.06
2023-04-28T21:06:10.753Z,98055.06
2023-04-28T21:08:36.960Z,98051.56
2023-04-28T21:11:03.051Z,98048.91
2023-04-28T21:13:29.139Z,98047.88
2023-04-28T21:15:55.260Z,98042.75
2023-04-28T21:18:21.360Z,98044.38
2023-04-28T21:20:47.489Z,98040.88
2023-04-28T21:23:13.604Z,98038.22
2023-04-28T21:25:39.682Z,98042.75
2023-04-28T21:28:05.776Z,98046.22
2023-04-28T21:30:31.975Z,98045.41
2023-04-28T21:32:58.241Z,98040.88
2023-04-28T21:35:24.443Z,98048.91
2023-04-28T21:37:50.639Z,98050.75
2023-04-28T21:40:18.904Z,98056.91
2023-04-28T21:42:45.699Z,98048.09
2023-04-28T21:45:11.841Z,98048.09
2023-04-28T21:47:38.075Z,98048.09
2023-04-28T21:50:04.229Z,98055.28
2023-04-28T21:52:30.344Z,98056.91
2023-04-28T21:54:56.452Z,98055.28
2023-04-28T21:57:22.704Z,98050.75
2023-04-28T21:59:49.468Z,98050.75
2023-04-28T22:02:15.652Z,98047.28
2023-04-28T22:04:41.813Z,98045.41
2023-04-28T22:07:08.076Z,98057.97
2023-04-28T22:09:34.173Z,98057.16
2023-04-28T22:12:00.272Z,98054.47
2023-04-28T22:14:40.577Z,98060.63
2023-04-28T22:17:07.587Z,98056.09
2023-04-28T22:19:33.708Z,98057.97
2023-04-28T22:21:59.809Z,98054.47
2023-04-28T22:24:25.928Z,98066.78
2023-04-28T22:26:52.098Z,98066.78
2023-04-28T22:29:18.223Z,98072.13
2023-04-28T22:31:44.499Z,98068.66
2023-04-28T22:34:10.813Z,98068.66
2023-04-28T22:36:36.902Z,98071.31
2023-04-28T22:39:03.009Z,98063.31
2023-04-28T22:41:29.410Z,98060.63
2023-04-28T22:43:55.517Z,98063.31
2023-04-28T22:46:21.643Z,98068.66
2023-04-28T22:48:47.771Z,98065.16
2023-04-28T22:51:13.863Z,98063.31
2023-04-28T22:53:39.958Z,98066.78
2023-04-28T22:56:06.092Z,98067.84
2023-04-28T22:58:32.201Z,98077.47
2023-04-28T23:00:58.306Z,98068.66
2023-04-28T23:03:24.973Z,98068.66
2023-04-28T23:05:51.146Z,98075.84
2023-04-28T23:08:17.233Z,98075.00
2023-04-28T23:10:43.364Z,98086.75
2023-04-28T23:13:09.461Z,98081.19
2023-04-28T23:15:35.560Z,98085.94
2023-04-28T23:18:01.746Z,98094.75
2023-04-28T23:20:27.860Z,98091.28
2023-04-28T23:22:53.952Z,98086.75
2023-04-28T23:25:20.088Z,98098.25
2023-04-28T23:27:46.181Z,98105.44
2023-04-28T23:30:12.275Z,98103.78
2023-04-28T23:32:38.492Z,98101.97
2023-04-28T23:35:04.692Z,98102.97
2023-04-28T23:37:30.798Z,98100.31
2023-04-28T23:39:56.912Z,98108.94
2023-04-28T23:42:22.998Z,98111.59
2023-04-28T23:44:49.104Z,98103.78
2023-04-28T23:47:15.234Z,98114.47
2023-04-28T23:49:41.688Z,98110.78
2023-04-28T23:52:08.049Z,98113.47
2023-04-28T23:54:34.204Z,98114.28
2023-04-28T23:57:00.311Z,98105.66
2023-04-28T23:59:26.395Z,98119.63
